Time;durP1;ratioP1;P1;durP2;ratioP2;P2;SDS_P1;SDS_P2;PMS_P1;PMS_P2;Temp;Humidity;BMP_temperature;BMP_pressure;BME280_temperature;BME280_humidity;BME280_pressure;Samples;Min_cycle;Max_cycle;Signal;HPM_P1;HPM_P2
2023/10/15 00:00:00;;;;;;;;;;;;;;;22.39;45.23;95822.97;10433176;28;2640;-56
2023/10/15 00:05:01;;;;;;;;;;;;;;;22.39;44.89;95841.47;10417002;28;2610;-56
2023/10/15 00:10:01;;;;;;;;;;;;;;;22.39;44.92;95834.34;10417512;28;2655;-56
2023/10/15 00:15:05;;;;;;;;;;;;;;;22.38;44.91;95830.09;10424143;28;2591;-57
2023/10/15 00:20:10;;;;;;;;;;;;;;;22.38;44.78;95842.53;10417369;28;2840;-55
2023/10/15 00:25:18;;;;;;;;;;;;;;;22.36;44.80;95840.16;10414180;28;2641;-55
2023/10/15 00:30:19;;;;;;;;;;;;;;;22.36;45.03;95845.44;10414962;28;2592;-55
2023/10/15 00:35:19;;;;;;;;;;;;;;;22.35;44.75;95841.25;10417013;28;2588;-57
2023/10/15 00:40:23;;;;;;;;;;;;;;;22.35;44.72;95841.25;10410431;28;2622;-57
2023/10/15 00:45:23;;;;;;;;;;;;;;;22.14;42.49;95839.91;10417062;28;5160;-55
2023/10/15 00:50:23;;;;;;;;;;;;;;;21.96;42.04;95843.28;10416087;28;2638;-51
2023/10/15 00:55:23;;;;;;;;;;;;;;;21.96;42.34;95832.72;10415074;28;2599;-55
2023/10/15 01:00:51;;;;;;;;;;;;;;;22.05;42.65;95852.13;10410423;28;2619;-56
2023/10/15 01:05:53;;;;;;;;;;;;;;;22.08;43.55;95838.38;10416347;28;2638;-56
2023/10/15 01:11:09;;;;;;;;;;;;;;;22.12;43.38;95836.75;10411739;28;2647;-57
2023/10/15 01:16:10;;;;;;;;;;;;;;;22.14;43.72;95825.91;10417521;28;2893;-55
2023/10/15 01:21:14;;;;;;;;;;;;;;;22.17;43.86;95822.72;10414385;28;2597;-55
2023/10/15 01:26:23;;;;;;;;;;;;;;;22.18;43.99;95838.28;10411885;28;2647;-54
2023/10/15 01:31:24;;;;;;;;;;;;;;;22.19;44.14;95833.78;10411424;28;2747;-56
2023/10/15 01:36:28;;;;;;;;;;;;;;;22.20;44.19;95824.78;10415173;28;2623;-52
2023/10/15 01:41:28;;;;;;;;;;;;;;;22.20;44.34;95825.56;10413814;28;2643;-55
2023/10/15 01:51:48;;;;;;;;;;;;;;;22.21;43.98;95816.59;10422201;28;2635;-54
2023/10/15 01:56:48;;;;;;;;;;;;;;;22.22;44.05;95820.78;10419682;28;2597;-52
2023/10/15 02:01:51;;;;;;;;;;;;;;;22.21;44.11;95818.44;10420857;28;2646;-57
2023/10/15 02:06:51;;;;;;;;;;;;;;;22.22;44.41;95817.38;10421793;28;2696;-56
2023/10/15 02:11:54;;;;;;;;;;;;;;;22.22;44.12;95818.16;10426461;28;2583;-56
2023/10/15 02:16:54;;;;;;;;;;;;;;;22.22;44.24;95815.50;10423062;28;2668;-55
2023/10/15 02:21:54;;;;;;;;;;;;;;;22.22;44.11;95815.50;10418647;28;2620;-57
2023/10/15 02:26:54;;;;;;;;;;;;;;;22.21;44.39;95806.03;10421081;28;2685;-56
2023/10/15 02:31:56;;;;;;;;;;;;;;;22.21;44.12;95805.25;10421942;28;2655;-56
2023/10/15 02:37:04;;;;;;;;;;;;;;;22.20;44.46;95807.09;10416344;28;2845;-56
2023/10/15 02:42:04;;;;;;;;;;;;;;;22.20;44.20;95815.00;10418857;28;5111;-56
2023/10/15 02:47:13;;;;;;;;;;;;;;;22.21;44.34;95821.88;10416015;28;2587;-54
2023/10/15 02:52:18;;;;;;;;;;;;;;;22.21;44.29;95815.81;10419370;28;2681;-54
2023/10/15 02:57:20;;;;;;;;;;;;;;;22.20;44.02;95819.50;10418175;28;2710;-55
2023/10/15 03:02:20;;;;;;;;;;;;;;;22.19;44.24;95834.56;10418883;28;2701;-53
2023/10/15 03:07:33;;;;;;;;;;;;;;;22.18;43.85;95835.63;10419062;28;2591;-56
2023/10/15 03:12:33;;;;;;;;;;;;;;;22.18;43.96;95817.16;10421625;28;2587;-55
2023/10/15 03:17:40;;;;;;;;;;;;;;;22.18;44.10;95806.59;10421863;28;2715;-54
2023/10/15 03:22:40;;;;;;;;;;;;;;;22.18;44.01;95822.44;10417545;28;2793;-55
2023/10/15 03:27:41;;;;;;;;;;;;;;;22.18;44.12;95811.88;10416961;28;2601;-56
2023/10/15 03:32:41;;;;;;;;;;;;;;;22.17;44.05;95815.59;10418789;28;2581;-57
2023/10/15 03:37:47;;;;;;;;;;;;;;;22.18;44.07;95825.06;10413765;28;2653;-55
2023/10/15 03:42:48;;;;;;;;;;;;;;;22.18;44.05;95817.16;10417045;28;4702;-53
2023/10/15 03:47:48;;;;;;;;;;;;;;;22.17;43.90;95814.81;10416563;28;2698;-54
2023/10/15 03:52:48;;;;;;;;;;;;;;;22.17;43.99;95818.22;10417585;28;2657;-56
2023/10/15 03:57:51;;;;;;;;;;;;;;;22.16;43.72;95819.28;10417066;28;2648;-56
2023/10/15 04:07:59;;;;;;;;;;;;;;;22.16;43.97;95808.72;10413965;28;2675;-56
2023/10/15 04:13:00;;;;;;;;;;;;;;;22.15;43.95;95801.88;10421205;28;2591;-55
2023/10/15 04:18:00;;;;;;;;;;;;;;;22.13;43.92;95801.38;10417842;28;2659;-54
2023/10/15 04:23:01;;;;;;;;;;;;;;;22.14;44.05;95794.22;10417128;28;2708;-56
2023/10/15 04:28:12;;;;;;;;;;;;;;;22.15;43.75;95798.44;10416906;28;2718;-54
2023/10/15 04:33:15;;;;;;;;;;;;;;;22.14;43.79;95795.03;10416660;28;2909;-55
2023/10/15 04:38:21;;;;;;;;;;;;;;;22.14;43.87;95795.03;10416772;28;2635;-55
2023/10/15 04:43:25;;;;;;;;;;;;;;;22.13;43.58;95793.47;10413412;28;4597;-56
2023/10/15 04:48:33;;;;;;;;;;;;;;;22.13;43.74;95798.75;10414300;28;2734;-56
2023/10/15 04:53:33;;;;;;;;;;;;;;;22.13;43.70;95798.75;10417021;28;2575;-55
2023/10/15 04:58:34;;;;;;;;;;;;;;;22.15;43.70;95796.59;10435754;28;2512;-55
2023/10/15 05:03:36;;;;;;;;;;;;;;;22.16;43.66;95806.09;10436805;28;2664;-55
2023/10/15 05:08:37;;;;;;;;;;;;;;;22.18;43.26;95801.31;10435563;28;1489;-55
2023/10/15 05:13:38;;;;;;;;;;;;;;;22.20;43.57;95803.66;10432392;28;1953;-55
2023/10/15 05:18:40;;;;;;;;;;;;;;;22.22;43.36;95812.09;10436673;28;1851;-54
2023/10/15 05:23:40;;;;;;;;;;;;;;;22.23;43.12;95806.53;10419787;28;1965;-53
2023/10/15 05:28:41;;;;;;;;;;;;;;;22.25;42.80;95808.88;10448736;28;1652;-54
2023/10/15 05:33:41;;;;;;;;;;;;;;;22.26;42.99;95808.59;10448082;28;1734;-55
2023/10/15 05:38:41;;;;;;;;;;;;;;;22.27;42.80;95809.41;10444400;28;1494;-54
2023/10/15 05:43:44;;;;;;;;;;;;;;;22.28;42.80;95800.38;10444598;28;4622;-54
2023/10/15 05:48:44;;;;;;;;;;;;;;;22.29;42.76;95820.47;10446997;28;3009;-53
2023/10/15 05:53:45;;;;;;;;;;;;;;;22.30;42.70;95819.38;10441870;28;1888;-55
2023/10/15 05:58:45;;;;;;;;;;;;;;;22.30;42.53;95814.88;10448497;28;1497;-56
2023/10/15 06:03:45;;;;;;;;;;;;;;;22.31;42.55;95826.25;10450393;28;2012;-55
2023/10/15 06:08:45;;;;;;;;;;;;;;;22.31;41.92;95832.31;10442486;28;1355;-56
2023/10/15 06:13:46;;;;;;;;;;;;;;;22.31;42.23;95829.69;10447932;28;1559;-54
2023/10/15 06:18:46;;;;;;;;;;;;;;;22.31;42.32;95842.88;10445141;28;1773;-55
2023/10/15 06:23:46;;;;;;;;;;;;;;;22.32;41.82;95852.38;10444997;28;1953;-55
2023/10/15 06:28:47;;;;;;;;;;;;;;;22.32;41.92;95849.72;10446332;28;1565;-56
2023/10/15 06:33:47;;;;;;;;;;;;;;;22.33;41.89;95855.78;10441599;28;2635;-55
2023/10/15 06:38:49;;;;;;;;;;;;;;;22.33;41.83;95843.38;10424129;28;1464;-56
2023/10/15 06:43:49;;;;;;;;;;;;;;;22.33;41.34;95842.59;10436061;28;4768;-56
2023/10/15 06:48:51;;;;;;;;;;;;;;;22.34;41.95;95844.94;10440836;28;1772;-54
2023/10/15 06:53:51;;;;;;;;;;;;;;;22.32;41.78;95847.09;10444316;28;1546;-55
2023/10/15 06:58:51;;;;;;;;;;;;;;;22.34;41.84;95838.91;10444368;28;1716;-57
2023/10/15 07:03:52;;;;;;;;;;;;;;;22.32;41.66;95848.94;10447790;28;1910;-52
2023/10/15 07:08:52;;;;;;;;;;;;;;;22.35;41.32;95851.03;10438522;28;1452;-54
2023/10/15 07:13:52;;;;;;;;;;;;;;;22.34;42.04;95847.59;10445340;28;1590;-54
2023/10/15 07:18:53;;;;;;;;;;;;;;;22.36;41.60;95849.97;10443216;28;2734;-53
2023/10/15 07:23:53;;;;;;;;;;;;;;;22.34;41.63;95831.75;10434865;28;1973;-55
2023/10/15 07:28:53;;;;;;;;;;;;;;;22.35;41.70;95838.59;10444177;28;1569;-51
2023/10/15 07:33:53;;;;;;;;;;;;;;;22.36;42.12;95858.66;10437367;28;1689;-57
2023/10/15 07:38:56;;;;;;;;;;;;;;;22.36;41.92;95869.22;10440201;28;2276;-58
2023/10/15 07:43:57;;;;;;;;;;;;;;;22.39;41.81;95870.50;10435760;28;4682;-56
2023/10/15 07:48:57;;;;;;;;;;;;;;;22.38;41.75;95874.25;10437608;28;1729;-55
2023/10/15 07:53:57;;;;;;;;;;;;;;;22.37;41.90;95870.81;10436177;28;1973;-57
2023/10/15 07:58:57;;;;;;;;;;;;;;;22.38;41.87;95859.16;10441446;28;1590;-58
2023/10/15 08:03:59;;;;;;;;;;;;;;;22.36;42.02;95856.00;10443979;28;2719;-55
2023/10/15 08:08:59;;;;;;;;;;;;;;;22.38;41.90;95848.59;10434508;28;1618;-58
2023/10/15 08:13:59;;;;;;;;;;;;;;;22.33;42.28;95851.31;10440475;28;1459;-59
2023/10/15 08:19:00;;;;;;;;;;;;;;;22.31;42.56;95853.44;10440416;28;1892;-59
2023/10/15 08:24:00;;;;;;;;;;;;;;;22.29;41.96;95854.78;10434267;28;1910;-59
2023/10/15 08:29:00;;;;;;;;;;;;;;;22.28;41.30;95848.72;10435279;28;1925;-59
2023/10/15 08:34:01;;;;;;;;;;;;;;;22.18;40.88;95853.31;10430127;28;1699;-58
2023/10/15 08:39:06;;;;;;;;;;;;;;;22.10;40.83;95861.84;10421625;28;2580;-57
2023/10/15 08:44:08;;;;;;;;;;;;;;;22.00;40.47;95841.63;10419506;28;4687;-58
2023/10/15 08:49:17;;;;;;;;;;;;;;;21.93;40.17;95841.19;10416143;28;2583;-60
2023/10/15 08:54:17;;;;;;;;;;;;;;;21.91;40.44;95906.66;10416631;28;2603;-58
2023/10/15 08:59:18;;;;;;;;;;;;;;;21.92;40.92;95908.25;10420845;28;2588;-59
2023/10/15 09:04:19;;;;;;;;;;;;;;;21.94;41.53;95900.81;10423172;28;2626;-58
2023/10/15 09:09:19;;;;;;;;;;;;;;;21.95;41.69;95902.38;10424511;28;2693;-57
2023/10/15 09:14:35;;;;;;;;;;;;;;;21.97;41.43;95900.25;10427219;28;2766;-58
2023/10/15 09:19:39;;;;;;;;;;;;;;;21.99;41.89;95898.13;10425567;28;2627;-57
2023/10/15 09:24:39;;;;;;;;;;;;;;;21.99;41.76;95895.47;10429339;28;2780;-58
2023/10/15 09:29:40;;;;;;;;;;;;;;;21.98;41.85;95901.06;10424866;28;2964;-58
2023/10/15 09:34:41;;;;;;;;;;;;;;;21.99;41.80;95906.03;10422267;28;2655;-57
2023/10/15 09:39:43;;;;;;;;;;;;;;;21.99;42.04;95919.25;10422045;28;2645;-56
2023/10/15 09:44:43;;;;;;;;;;;;;;;21.99;41.89;95924.50;10420824;28;4637;-61
2023/10/15 09:49:44;;;;;;;;;;;;;;;21.99;42.02;95913.19;10421516;28;2603;-59
2023/10/15 09:54:44;;;;;;;;;;;;;;;21.99;41.92;95915.84;10424426;28;2718;-59
2023/10/15 09:59:52;;;;;;;;;;;;;;;21.97;42.34;95910.81;10409687;28;2673;-59
2023/10/15 10:04:56;;;;;;;;;;;;;;;21.98;42.45;95908.97;10420785;28;2809;-59
2023/10/15 10:10:17;;;;;;;;;;;;;;;21.97;42.21;95900.25;10420660;28;2663;-59
2023/10/15 10:15:36;;;;;;;;;;;;;;;21.98;42.41;95896.56;10424228;28;2771;-59
2023/10/15 10:20:37;;;;;;;;;;;;;;;21.99;42.63;95874.38;10440498;28;2937;-59
2023/10/15 10:25:39;;;;;;;;;;;;;;;22.01;42.32;95882.78;10423665;28;2591;-59
2023/10/15 10:30:50;;;;;;;;;;;;;;;22.01;42.47;95882.03;10420751;28;2735;-59
2023/10/15 10:35:50;;;;;;;;;;;;;;;22.03;42.52;95874.63;10420530;28;2655;-59
2023/10/15 10:41:03;;;;;;;;;;;;;;;22.03;42.55;95869.34;10420450;28;4673;-59
2023/10/15 10:46:06;;;;;;;;;;;;;;;22.02;42.86;95873.81;10422507;28;2599;-57
2023/10/15 10:51:12;;;;;;;;;;;;;;;22.01;42.97;95864.31;10418409;28;2621;-58
2023/10/15 10:56:12;;;;;;;;;;;;;;;22.02;43.02;95867.75;10417916;28;2629;-60
2023/10/15 11:01:13;;;;;;;;;;;;;;;22.03;43.28;95878.03;10421640;28;2586;-60
2023/10/15 11:06:15;;;;;;;;;;;;;;;22.06;43.82;95866.91;10419841;28;2838;-59
2023/10/15 11:11:18;;;;;;;;;;;;;;;22.07;43.81;95865.06;10418879;28;2655;-60
2023/10/15 11:16:18;;;;;;;;;;;;;;;22.07;44.34;95867.72;10431542;28;2567;-59
2023/10/15 11:21:19;;;;;;;;;;;;;;;22.07;44.18;95873.75;10438795;28;2039;-59
2023/10/15 11:26:19;;;;;;;;;;;;;;;22.06;44.04;95876.69;10443006;28;1909;-59
2023/10/15 11:31:21;;;;;;;;;;;;;;;22.04;43.72;95874.34;10435732;28;1491;-59
2023/10/15 11:36:23;;;;;;;;;;;;;;;22.02;43.63;95884.38;10440745;28;2036;-59
2023/10/15 11:41:23;;;;;;;;;;;;;;;22.02;43.72;95886.22;10440256;28;4647;-58
2023/10/15 11:46:26;;;;;;;;;;;;;;;22.01;43.35;95861.69;10412756;28;1910;-59
2023/10/15 11:51:27;;;;;;;;;;;;;;;22.01;43.45;95866.97;10437410;28;2448;-59
2023/10/15 11:56:31;;;;;;;;;;;;;;;21.99;43.68;95869.09;10437299;28;1570;-59
2023/10/15 12:01:31;;;;;;;;;;;;;;;22.00;43.73;95862.75;10433637;28;1554;-59
2023/10/15 12:06:32;;;;;;;;;;;;;;;22.03;44.17;95862.19;10438651;28;2512;-59
2023/10/15 12:11:33;;;;;;;;;;;;;;;22.03;44.17;95871.97;10417219;28;1780;-61
2023/10/15 12:16:39;;;;;;;;;;;;;;;22.02;44.43;95876.47;10438463;28;1850;-60
2023/10/15 12:21:39;;;;;;;;;;;;;;;22.03;44.00;95878.03;10440335;28;1833;-60
2023/10/15 12:26:40;;;;;;;;;;;;;;;22.05;44.36;95865.31;10437305;28;1981;-60
2023/10/15 12:31:43;;;;;;;;;;;;;;;22.04;44.18;95863.78;10439925;28;1527;-59
2023/10/15 12:36:43;;;;;;;;;;;;;;;22.02;44.04;95850.06;10432955;28;1791;-60
2023/10/15 12:41:44;;;;;;;;;;;;;;;22.01;44.08;95864.31;10434719;28;4685;-60
2023/10/15 12:46:44;;;;;;;;;;;;;;;22.01;44.10;95871.47;10434209;28;1922;-60
2023/10/15 12:51:44;;;;;;;;;;;;;;;22.00;44.49;95873.31;10429084;28;2833;-57
2023/10/15 12:56:45;;;;;;;;;;;;;;;22.04;44.20;95886.72;10432955;28;1624;-59
2023/10/15 13:01:46;;;;;;;;;;;;;;;22.03;44.29;95885.94;10432243;28;1513;-59
2023/10/15 13:06:46;;;;;;;;;;;;;;;22.02;44.20;95873.03;10406259;28;2776;-59
2023/10/15 13:11:46;;;;;;;;;;;;;;;22.05;44.55;95894.38;10421988;28;2658;-60
2023/10/15 13:16:50;;;;;;;;;;;;;;;22.04;43.91;95926.34;10413003;28;2628;-59
2023/10/15 13:21:51;;;;;;;;;;;;;;;22.03;44.23;95919.50;10411374;28;2587;-60
2023/10/15 13:26:51;;;;;;;;;;;;;;;22.02;44.24;95925.81;10414190;28;2693;-59
2023/10/15 13:31:51;;;;;;;;;;;;;;;22.00;44.07;95899.72;10412983;28;2674;-59
2023/10/15 13:36:51;;;;;;;;;;;;;;;22.00;44.17;95891.00;10416136;28;2734;-60
2023/10/15 13:41:52;;;;;;;;;;;;;;;21.98;43.82;95895.78;10416253;28;4634;-59
2023/10/15 13:46:53;;;;;;;;;;;;;;;21.98;43.80;95906.31;10423480;28;2668;-60
2023/10/15 13:51:53;;;;;;;;;;;;;;;21.97;43.72;95908.16;10422402;28;2642;-60
2023/10/15 13:56:56;;;;;;;;;;;;;;;21.96;43.62;95909.25;10423698;28;2550;-60
2023/10/15 14:01:57;;;;;;;;;;;;;;;21.97;43.33;95910.81;10424995;28;2618;-60
2023/10/15 14:06:58;;;;;;;;;;;;;;;21.96;43.54;95900.53;10421897;28;2611;-60
2023/10/15 14:11:58;;;;;;;;;;;;;;;21.95;43.50;95896.34;10427667;28;2608;-60
2023/10/15 14:16:58;;;;;;;;;;;;;;;21.95;43.19;95918.22;10422945;28;2638;-60
2023/10/15 14:21:59;;;;;;;;;;;;;;;21.95;43.93;95914.81;10425061;28;2738;-60
2023/10/15 14:26:59;;;;;;;;;;;;;;;21.94;43.50;95921.16;10421101;28;2718;-59
2023/10/15 14:32:00;;;;;;;;;;;;;;;21.94;43.40;95929.06;10423120;28;2580;-60
2023/10/15 14:37:01;;;;;;;;;;;;;;;21.93;43.31;95932.78;10421334;28;2619;-60
2023/10/15 14:42:01;;;;;;;;;;;;;;;21.92;43.50;95924.06;10422534;28;2611;-60
2023/10/15 14:47:02;;;;;;;;;;;;;;;21.92;43.69;95934.63;10420812;28;2632;-59
2023/10/15 14:52:03;;;;;;;;;;;;;;;21.92;43.51;95937.28;10421966;28;2639;-60
2023/10/15 14:57:04;;;;;;;;;;;;;;;21.91;43.62;95943.59;10419435;28;2623;-60
2023/10/15 15:02:04;;;;;;;;;;;;;;;21.92;43.28;95947.03;10421640;28;2677;-60
2023/10/15 15:07:04;;;;;;;;;;;;;;;21.90;43.22;95947.31;10422390;28;2644;-60
2023/10/15 15:12:05;;;;;;;;;;;;;;;21.90;43.50;95946.53;10421774;28;2705;-60
2023/10/15 15:17:07;;;;;;;;;;;;;;;21.89;43.32;95953.63;10424618;28;2671;-59
2023/10/15 15:22:07;;;;;;;;;;;;;;;21.90;43.66;95962.34;10420673;28;2795;-60
2023/10/15 15:27:07;;;;;;;;;;;;;;;21.88;43.53;95978.47;10419161;28;2640;-60
2023/10/15 15:32:08;;;;;;;;;;;;;;;21.88;43.38;95981.88;10420846;28;2677;-60
2023/10/15 15:37:08;;;;;;;;;;;;;;;21.89;43.47;95998.50;10420823;28;2616;-60
2023/10/15 15:42:08;;;;;;;;;;;;;;;21.88;43.79;96007.50;10418852;28;2693;-60
2023/10/15 15:47:10;;;;;;;;;;;;;;;21.87;43.59;96005.91;10419596;28;2662;-60
2023/10/15 15:52:11;;;;;;;;;;;;;;;21.87;43.44;96021.75;10419012;28;2688;-60
2023/10/15 15:57:12;;;;;;;;;;;;;;;21.86;43.50;96025.47;10419952;28;2648;-61
2023/10/15 16:02:12;;;;;;;;;;;;;;;21.85;43.48;96037.06;10416173;28;2620;-60
2023/10/15 16:07:12;;;;;;;;;;;;;;;21.83;43.40;96041.84;10413302;28;2710;-60
2023/10/15 16:12:13;;;;;;;;;;;;;;;21.83;43.68;96049.75;10416109;28;2611;-60
2023/10/15 16:17:15;;;;;;;;;;;;;;;21.81;43.34;96054.47;10416627;28;2667;-60
2023/10/15 16:22:15;;;;;;;;;;;;;;;21.81;43.39;96059.75;10422546;28;2909;-59
2023/10/15 16:27:17;;;;;;;;;;;;;;;21.80;43.59;96072.16;10418018;28;2646;-57
2023/10/15 16:32:18;;;;;;;;;;;;;;;21.79;43.26;96070.59;10417874;28;2630;-59
2023/10/15 16:37:19;;;;;;;;;;;;;;;21.78;43.17;96084.06;10418762;28;2615;-59
2023/10/15 16:42:19;;;;;;;;;;;;;;;21.77;43.30;96096.47;10418765;28;4653;-61
2023/10/15 16:47:19;;;;;;;;;;;;;;;21.77;42.95;96109.66;10417647;28;2607;-60
2023/10/15 16:52:19;;;;;;;;;;;;;;;21.76;42.90;96126.53;10413653;28;2733;-61
2023/10/15 16:57:20;;;;;;;;;;;;;;;21.75;43.03;96134.75;10417115;28;2631;-61
2023/10/15 17:02:20;;;;;;;;;;;;;;;21.72;42.84;96137.94;10419642;28;2702;-61
2023/10/15 17:07:22;;;;;;;;;;;;;;;21.74;43.20;96149.00;10423945;28;2639;-60
2023/10/15 17:12:22;;;;;;;;;;;;;;;21.74;42.69;96159.56;10416235;28;2716;-59
2023/10/15 17:17:23;;;;;;;;;;;;;;;21.76;43.14;96166.13;10418044;28;2630;-61
2023/10/15 17:22:23;;;;;;;;;;;;;;;21.82;42.48;96161.66;10424947;28;2603;-60
2023/10/15 17:27:25;;;;;;;;;;;;;;;21.97;43.31;96164.22;10424852;28;2739;-60
2023/10/15 17:32:25;;;;;;;;;;;;;;;22.07;42.99;96172.06;10422948;28;2690;-61
2023/10/15 17:37:27;;;;;;;;;;;;;;;22.17;42.91;96182.59;10423800;28;2663;-60
2023/10/15 17:42:27;;;;;;;;;;;;;;;22.25;42.72;96182.03;10424555;28;4435;-60
2023/10/15 17:47:27;;;;;;;;;;;;;;;22.33;42.08;96189.38;10424755;28;2638;-61
2023/10/15 17:52:28;;;;;;;;;;;;;;;22.40;41.78;96186.41;10421348;28;2634;-60
2023/10/15 17:57:28;;;;;;;;;;;;;;;22.42;42.50;96190.34;10421967;28;2579;-60
2023/10/15 18:02:28;;;;;;;;;;;;;;;22.36;41.82;96175.59;10423225;28;2627;-59
2023/10/15 18:07:29;;;;;;;;;;;;;;;22.31;41.56;96178.28;10424262;28;2674;-59
2023/10/15 18:12:29;;;;;;;;;;;;;;;22.29;42.12;96190.97;10426413;28;2542;-59
2023/10/15 18:17:32;;;;;;;;;;;;;;;22.25;41.89;96197.88;10423456;28;2614;-60
2023/10/15 18:22:32;;;;;;;;;;;;;;;22.21;41.39;96202.13;10420435;28;2695;-59
2023/10/15 18:27:33;;;;;;;;;;;;;;;22.18;41.72;96202.66;10423490;28;2980;-59
2023/10/15 18:32:33;;;;;;;;;;;;;;;22.14;41.63;96198.97;10421380;28;2644;-59
2023/10/15 18:37:33;;;;;;;;;;;;;;;22.11;41.60;96207.44;10421742;28;2627;-59
2023/10/15 18:42:34;;;;;;;;;;;;;;;22.11;41.70;96211.94;10419200;28;4625;-59
2023/10/15 18:47:35;;;;;;;;;;;;;;;22.09;41.76;96211.41;10421000;28;2549;-59
2023/10/15 18:52:35;;;;;;;;;;;;;;;22.08;41.71;96229.09;10418433;28;2587;-59
2023/10/15 18:57:36;;;;;;;;;;;;;;;22.06;41.73;96228.59;10418633;28;2710;-59
2023/10/15 19:02:36;;;;;;;;;;;;;;;22.04;41.68;96235.19;10415766;28;7102;-59
2023/10/15 19:07:36;;;;;;;;;;;;;;;22.03;41.67;96236.25;10420704;28;5418;-59
2023/10/15 19:12:36;;;;;;;;;;;;;;;22.05;41.25;96245.47;10429825;28;2611;-59
2023/10/15 19:17:37;;;;;;;;;;;;;;;22.07;41.30;96247.88;10427516;28;5404;-59
2023/10/15 19:22:37;;;;;;;;;;;;;;;22.01;41.21;96252.34;10425700;28;2617;-60
2023/10/15 19:27:38;;;;;;;;;;;;;;;22.00;40.98;96250.78;10430844;28;2631;-60
2023/10/15 19:32:38;;;;;;;;;;;;;;;21.99;41.71;96251.06;10426652;28;2631;-62
2023/10/15 19:37:39;;;;;;;;;;;;;;;22.03;41.52;96260.78;10428537;28;5481;-60
2023/10/15 19:42:39;;;;;;;;;;;;;;;22.03;41.58;96266.06;10395395;28;1049155;-59
2023/10/15 19:47:39;;;;;;;;;;;;;;;22.02;41.50;96267.16;10428740;28;2701;-58
2023/10/15 19:52:42;;;;;;;;;;;;;;;22.05;40.78;96271.09;10427555;28;2619;-58
2023/10/15 19:57:45;;;;;;;;;;;;;;;22.05;41.01;96274.50;10425385;28;2599;-58
2023/10/15 20:02:46;;;;;;;;;;;;;;;22.06;41.48;96277.94;10427918;28;2960;-61
2023/10/15 20:07:47;;;;;;;;;;;;;;;22.07;41.72;96272.38;10426895;28;5134;-60
2023/10/15 20:12:47;;;;;;;;;;;;;;;22.11;41.49;96268.19;10428451;28;2604;-59
2023/10/15 20:17:47;;;;;;;;;;;;;;;22.22;40.18;96276.81;10426840;28;2572;-59
2023/10/15 20:22:47;;;;;;;;;;;;;;;22.20;40.40;96277.09;10427729;28;2642;-59
2023/10/15 20:27:48;;;;;;;;;;;;;;;22.38;41.15;96271.19;10431640;28;2556;-59
2023/10/15 20:32:49;;;;;;;;;;;;;;;22.31;40.85;96276.00;10426596;28;2766;-64
2023/10/15 20:37:50;;;;;;;;;;;;;;;22.27;40.77;96290.81;10423483;28;2650;-58
2023/10/15 20:42:51;;;;;;;;;;;;;;;22.27;40.86;96279.44;10425990;28;2575;-57
2023/10/15 20:47:53;;;;;;;;;;;;;;;22.26;40.94;96281.28;10424623;28;2642;-60
2023/10/15 20:52:53;;;;;;;;;;;;;;;22.27;40.86;96288.16;10424947;28;2610;-59
2023/10/15 20:57:53;;;;;;;;;;;;;;;22.28;40.96;96295.03;10425108;28;2693;-60
2023/10/15 21:02:55;;;;;;;;;;;;;;;22.28;40.89;96295.03;10424992;28;2802;-59
2023/10/15 21:07:55;;;;;;;;;;;;;;;22.32;40.88;96290.78;10424498;28;5034;-60
2023/10/15 21:12:56;;;;;;;;;;;;;;;22.33;41.04;96288.94;10412492;28;2608;-59
2023/10/15 21:17:56;;;;;;;;;;;;;;;22.30;40.77;96292.09;10427981;28;2579;-59
2023/10/15 21:22:56;;;;;;;;;;;;;;;22.26;40.30;96288.41;10426052;28;2580;-59
2023/10/15 21:27:56;;;;;;;;;;;;;;;22.25;40.56;96282.38;10424414;28;2632;-59
2023/10/15 21:32:57;;;;;;;;;;;;;;;22.22;40.50;96285.53;10424142;28;2660;-59
2023/10/15 21:37:58;;;;;;;;;;;;;;;22.23;40.66;96273.13;10424235;28;2758;-59
2023/10/15 21:42:58;;;;;;;;;;;;;;;22.22;40.76;96282.09;10425270;28;2541;-59
2023/10/15 21:48:00;;;;;;;;;;;;;;;22.19;40.57;96278.19;10423813;28;2645;-59
2023/10/15 21:53:00;;;;;;;;;;;;;;;22.20;40.88;96284.22;10427417;28;2525;-59
2023/10/15 21:58:00;;;;;;;;;;;;;;;22.18;40.80;96273.94;10426365;28;2611;-59
2023/10/15 22:03:00;;;;;;;;;;;;;;;22.18;40.88;96278.44;10422471;28;2600;-60
2023/10/15 22:08:01;;;;;;;;;;;;;;;22.17;40.91;96275.00;10436526;28;5017;-59
2023/10/15 22:13:03;;;;;;;;;;;;;;;22.17;40.79;96277.66;10433058;28;2701;-59
2023/10/15 22:18:04;;;;;;;;;;;;;;;22.16;40.65;96273.41;10435435;28;3270;-58
2023/10/15 22:23:07;;;;;;;;;;;;;;;22.14;40.60;96264.19;10432246;28;2565;-59
2023/10/15 22:28:10;;;;;;;;;;;;;;;22.15;40.76;96271.06;10433782;28;2646;-59
2023/10/15 22:33:11;;;;;;;;;;;;;;;22.14;40.44;96270.25;10434608;28;2552;-59
2023/10/15 22:38:16;;;;;;;;;;;;;;;22.13;40.70;96266.06;10431354;28;2636;-59
2023/10/15 22:43:17;;;;;;;;;;;;;;;22.13;40.45;96266.06;10427988;28;2603;-59
2023/10/15 22:48:17;;;;;;;;;;;;;;;22.12;40.90;96261.03;10431040;28;2592;-60
2023/10/15 22:53:19;;;;;;;;;;;;;;;22.10;40.76;96252.59;10432216;28;2626;-59
2023/10/15 22:58:21;;;;;;;;;;;;;;;22.11;40.46;96254.19;10428351;28;2559;-60
2023/10/15 23:03:22;;;;;;;;;;;;;;;22.09;40.41;96249.16;10426624;28;3157;-60
2023/10/15 23:08:22;;;;;;;;;;;;;;;22.10;40.65;96247.31;10433348;28;4963;-60
2023/10/15 23:13:22;;;;;;;;;;;;;;;22.09;40.64;96251.78;10438021;28;2719;-60
2023/10/15 23:18:22;;;;;;;;;;;;;;;22.08;40.47;96250.22;10428712;28;2661;-60
2023/10/15 23:23:23;;;;;;;;;;;;;;;22.08;40.43;96249.44;10432248;28;2644;-60
2023/10/15 23:28:23;;;;;;;;;;;;;;;22.07;40.41;96245.22;10428674;28;2610;-60
2023/10/15 23:33:28;;;;;;;;;;;;;;;22.06;40.62;96235.72;10431723;28;2548;-60
2023/10/15 23:38:28;;;;;;;;;;;;;;;22.04;40.42;96233.34;10429627;28;2635;-60
2023/10/15 23:43:32;;;;;;;;;;;;;;;22.04;40.39;96236.00;10429469;28;3087;-60
2023/10/15 23:48:39;;;;;;;;;;;;;;;22.02;40.44;96214.34;10430460;28;2749;-60
2023/10/15 23:53:40;;;;;;;;;;;;;;;22.03;40.15;96229.13;10426138;28;2581;-60
2023/10/15 23:58:41;;;;;;;;;;;;;;;22.02;40.47;96232.81;10433336;28;2912;-60
